Locarno Airport LSZL

Airport Data

Name: Locarno Airport

Ident: LSZL

Lat: 46.16080093

Long: 8.878609657

Elevation: 650 ft

IataCode: ZJI

City:

Metar

2021/09/28 07:20
LSZL 280720Z 00000KT CAVOK 15/13 Q1021 RMK BLU

Taf

Add a Webcam Url. We will unlock it as soon is possible. Thank you:
Url: Title: